Nice, France
Current Conditions -  °F | °C
As of 11:30 PM on Monday 22 Dec 2014 (Local Time) from LFMN Reporting Station
Broken Clouds Broken Clouds  
Wind Chill: 40°   Ceiling: 3000
Heat Index: 46°   Visibility: 6mi
Dew Point: 36°   Wind: 14mph
Humidity: 66%   Direction: 330°NNW
Pressure: 30.42"   Gusts: NA
Location:  43.7°N, 7.27°E
Report Text: LFMN 222230Z 33012KT 9999 BKN030 08/02 Q1030 NOSIG
Loading
Personal Weather Stations






























Interactive Weather Map New forecast layout! Learn more

10-Day Weather Forecast

Advertisements
Track Severe Weather on mobile